createdAt,value
2022-11-29T00:03:20.726Z,101516.56
2022-11-29T00:08:18.765Z,101521.69
2022-11-29T00:13:10.136Z,101516.34
2022-11-29T00:18:08.105Z,101525.56
2022-11-29T00:22:59.911Z,101534.81
2022-11-29T00:27:55.221Z,101537.22
2022-11-29T00:32:55.429Z,101537.97
2022-11-29T00:37:56.326Z,101539.50
2022-11-29T00:42:59.882Z,101537.50
2022-11-29T00:47:50.786Z,101531.34
2022-11-29T00:52:43.451Z,101534.66
2022-11-29T00:57:57.950Z,101538.88
2022-11-29T01:02:52.324Z,101536.28
2022-11-29T01:07:58.738Z,101547.38
2022-11-29T01:12:54.423Z,101543.94
2022-11-29T01:17:49.613Z,101540.38
2022-11-29T01:22:45.192Z,101550.66
2022-11-29T01:27:38.346Z,101548.91
2022-11-29T01:32:38.888Z,101556.66
2022-11-29T01:37:32.392Z,101555.75
2022-11-29T01:42:27.491Z,101557.44
2022-11-29T01:47:27.990Z,101565.00
2022-11-29T01:52:25.627Z,101569.91
2022-11-29T01:57:17.472Z,101580.16
2022-11-29T02:02:23.071Z,101586.13
2022-11-29T02:07:22.204Z,101580.13
2022-11-29T02:12:27.709Z,101584.78
2022-11-29T02:17:27.390Z,101588.25
2022-11-29T02:22:35.457Z,101596.19
2022-11-29T02:28:07.173Z,101600.38
2022-11-29T02:33:41.766Z,101600.38
2022-11-29T02:38:51.628Z,101602.78
2022-11-29T02:44:08.074Z,101605.56
2022-11-29T02:49:23.412Z,101614.03
2022-11-29T02:54:21.899Z,101616.44
2022-11-29T02:59:24.936Z,101618.16
2022-11-29T03:04:31.762Z,101629.25
2022-11-29T03:09:35.830Z,101642.03
2022-11-29T03:14:29.756Z,101635.16
2022-11-29T03:19:54.092Z,101639.00
2022-11-29T03:25:00.758Z,101654.09
2022-11-29T03:29:59.907Z,101660.13
2022-11-29T03:35:05.899Z,101659.31
2022-11-29T03:40:06.319Z,101660.34
2022-11-29T03:45:06.629Z,101659.75
2022-11-29T03:50:09.730Z,101665.81
2022-11-29T03:55:18.358Z,101670.34
2022-11-29T04:00:14.708Z,101678.19
2022-11-29T04:05:35.623Z,101684.28
2022-11-29T04:10:50.432Z,101684.22
2022-11-29T04:16:15.293Z,101692.94
2022-11-29T04:21:44.264Z,101687.78
2022-11-29T04:27:05.750Z,101694.66
2022-11-29T04:32:21.373Z,101690.34
2022-11-29T04:37:39.586Z,101690.28
2022-11-29T04:43:00.672Z,101703.00
2022-11-29T04:48:01.845Z,101706.25
2022-11-29T04:53:28.611Z,101717.28
2022-11-29T04:58:33.821Z,101693.84
2022-11-29T05:03:37.295Z,101700.84
2022-11-29T05:08:38.762Z,101700.81
2022-11-29T05:13:58.215Z,101709.38
2022-11-29T05:19:22.053Z,101713.44
2022-11-29T05:24:30.497Z,101728.78
2022-11-29T05:29:42.541Z,101745.03
2022-11-29T05:35:11.673Z,101752.97
2022-11-29T05:40:39.355Z,101758.28
2022-11-29T05:45:38.387Z,101769.47
2022-11-29T05:50:36.796Z,101769.72
2022-11-29T05:55:52.139Z,101769.03
2022-11-29T06:00:56.086Z,101781.13
2022-11-29T06:05:53.179Z,101791.53
2022-11-29T06:10:58.867Z,101796.75
2022-11-29T06:16:24.062Z,101811.56
2022-11-29T06:21:30.272Z,101821.09
2022-11-29T06:26:37.575Z,101820.31
2022-11-29T06:31:38.528Z,101817.78
2022-11-29T06:36:44.224Z,101824.69
2022-11-29T06:41:36.999Z,101825.59
2022-11-29T06:46:50.644Z,101834.16
2022-11-29T06:51:57.430Z,101844.56
2022-11-29T06:57:01.491Z,101848.91
2022-11-29T07:02:06.016Z,101859.25
2022-11-29T07:07:00.446Z,101851.34
2022-11-29T07:11:58.980Z,101867.91
2022-11-29T07:17:08.193Z,101879.25
2022-11-29T07:22:09.016Z,101874.97
2022-11-29T07:27:07.283Z,101889.06
2022-11-29T07:32:11.485Z,101878.59
2022-11-29T07:37:18.810Z,101896.16
2022-11-29T07:42:20.860Z,101905.75
2022-11-29T07:47:17.352Z,101898.97
2022-11-29T07:52:18.271Z,101908.59
2022-11-29T07:57:08.443Z,101905.34
2022-11-29T08:01:58.950Z,101913.06
2022-11-29T08:06:52.594Z,101924.63
2022-11-29T08:11:44.142Z,101912.56
2022-11-29T08:16:39.371Z,101919.22
2022-11-29T08:21:32.130Z,101896.63
2022-11-29T08:26:31.812Z,101925.56
2022-11-29T08:31:33.059Z,101932.63
2022-11-29T08:36:33.050Z,101936.34
2022-11-29T08:41:26.045Z,101951.78
2022-11-29T08:46:18.735Z,101949.97
2022-11-29T08:51:11.238Z,101954.53
2022-11-29T08:56:23.629Z,101967.41
2022-11-29T09:01:30.195Z,101965.78
2022-11-29T09:06:31.428Z,101965.03
2022-11-29T09:11:26.385Z,101980.72
2022-11-29T09:16:35.414Z,101984.38
2022-11-29T09:21:34.623Z,101988.84
2022-11-29T09:26:27.671Z,101985.38
2022-11-29T09:31:28.493Z,102009.84
2022-11-29T09:36:27.856Z,102005.84
2022-11-29T09:41:48.206Z,102004.31
2022-11-29T09:47:03.253Z,102016.69
2022-11-29T09:52:07.338Z,102012.63
2022-11-29T09:57:12.863Z,102012.00
2022-11-29T10:02:22.182Z,102020.72
2022-11-29T10:07:23.536Z,102019.28
2022-11-29T10:12:23.792Z,102015.31
2022-11-29T10:17:29.207Z,102015.72
2022-11-29T10:22:29.145Z,102010.84
2022-11-29T10:27:31.658Z,102016.22
2022-11-29T10:32:31.298Z,102019.66
2022-11-29T10:37:30.164Z,102012.63
2022-11-29T10:42:38.250Z,102010.91
2022-11-29T10:47:34.386Z,102023.28
2022-11-29T10:52:38.857Z,102026.84
2022-11-29T10:57:33.242Z,102016.47
2022-11-29T11:02:27.976Z,102025.53
2022-11-29T11:07:36.899Z,102025.47
2022-11-29T11:12:37.205Z,102040.13
2022-11-29T11:17:34.208Z,102036.50
2022-11-29T11:22:35.353Z,102035.53
2022-11-29T11:27:40.190Z,102024.97
2022-11-29T11:32:30.227Z,102041.28
2022-11-29T11:37:33.862Z,102047.31
2022-11-29T11:42:39.687Z,102059.41
2022-11-29T11:47:38.681Z,102051.72
2022-11-29T11:52:50.063Z,102059.41
2022-11-29T11:57:41.188Z,102056.78
2022-11-29T12:02:45.110Z,102063.00
2022-11-29T12:13:03.307Z,102053.38
2022-11-29T12:18:03.940Z,102067.28
2022-11-29T12:23:25.998Z,102090.94
2022-11-29T12:28:22.008Z,102088.69
2022-11-29T12:33:32.027Z,102086.31
2022-11-29T12:38:52.351Z,102093.13
2022-11-29T12:44:07.926Z,102099.38
2022-11-29T12:49:09.113Z,102105.81
2022-11-29T12:54:36.329Z,102104.63
2022-11-29T12:59:53.014Z,102115.44
2022-11-29T13:04:59.911Z,102122.28
2022-11-29T13:10:32.911Z,102104.94
2022-11-29T13:15:34.256Z,102111.88
2022-11-29T13:20:44.263Z,102110.16
2022-11-29T13:25:43.844Z,102115.28
2022-11-29T13:30:51.403Z,102105.66
2022-11-29T13:35:56.025Z,102108.25
2022-11-29T13:41:09.572Z,102107.44
2022-11-29T13:46:17.731Z,102113.47
2022-11-29T13:51:26.509Z,102096.78
2022-11-29T13:56:37.701Z,102113.59
2022-11-29T14:01:33.707Z,102113.38
2022-11-29T14:06:41.019Z,102109.75
2022-11-29T14:11:37.579Z,102115.66
2022-11-29T14:16:39.529Z,102122.69
2022-11-29T14:21:53.061Z,102116.66
2022-11-29T14:26:51.063Z,102109.66
2022-11-29T14:32:27.035Z,102124.06
2022-11-29T14:37:50.555Z,102121.13
2022-11-29T14:42:49.817Z,102114.00
2022-11-29T14:47:55.091Z,102129.63
2022-11-29T14:52:57.895Z,102113.75
2022-11-29T14:58:28.194Z,102144.91
2022-11-29T15:03:39.446Z,102146.41
2022-11-29T15:08:47.280Z,102148.81
2022-11-29T15:13:48.777Z,102158.16
2022-11-29T15:19:34.214Z,102151.91
2022-11-29T15:24:30.004Z,102162.06
2022-11-29T15:29:24.579Z,102154.13
2022-11-29T15:34:30.300Z,102163.56
2022-11-29T15:39:40.294Z,102166.09
2022-11-29T15:44:43.361Z,102151.84
2022-11-29T15:49:39.815Z,102170.13
2022-11-29T15:54:42.259Z,102169.91
2022-11-29T15:59:42.151Z,102165.38
2022-11-29T16:04:34.810Z,102172.38
2022-11-29T16:09:36.323Z,102155.69
2022-11-29T16:14:31.479Z,102178.34
2022-11-29T16:19:29.053Z,102183.41
2022-11-29T16:24:24.119Z,102189.25
2022-11-29T16:29:32.124Z,102179.78
2022-11-29T16:34:44.561Z,102176.13
2022-11-29T16:39:38.974Z,102187.38
2022-11-29T16:45:03.381Z,102189.66
2022-11-29T16:50:25.458Z,102196.53
2022-11-29T16:55:23.300Z,102197.38
2022-11-29T17:00:27.150Z,102204.97
2022-11-29T17:05:26.193Z,102196.31
2022-11-29T17:10:21.219Z,102195.34
2022-11-29T17:15:16.120Z,102208.16
2022-11-29T17:20:23.446Z,102205.66
2022-11-29T17:25:19.366Z,102207.19
2022-11-29T17:35:21.818Z,102228.69
2022-11-29T17:40:16.191Z,102212.84
2022-11-29T17:45:13.841Z,102227.00
2022-11-29T17:50:06.700Z,102237.13
2022-11-29T17:55:03.129Z,102238.72
2022-11-29T17:59:59.537Z,102223.00
2022-11-29T18:04:51.247Z,102241.13
2022-11-29T18:09:51.753Z,102230.72
2022-11-29T18:14:52.311Z,102232.25
2022-11-29T18:19:52.383Z,102263.59
2022-11-29T18:24:49.587Z,102265.34
2022-11-29T18:29:48.627Z,102267.72
2022-11-29T18:34:43.826Z,102271.00
2022-11-29T18:39:40.760Z,102265.84
2022-11-29T18:44:41.058Z,102263.19
2022-11-29T18:49:36.995Z,102281.06
2022-11-29T18:54:35.066Z,102281.19
2022-11-29T18:59:46.271Z,102267.16
2022-11-29T19:04:54.262Z,102207.34
2022-11-29T19:09:48.336Z,102292.31
2022-11-29T19:14:42.786Z,102292.22
2022-11-29T19:19:49.608Z,102297.22
2022-11-29T19:24:47.213Z,102290.09
2022-11-29T19:29:57.316Z,102301.16
2022-11-29T19:34:58.467Z,102289.50
2022-11-29T19:39:51.500Z,102295.19
2022-11-29T19:50:06.249Z,102286.91
2022-11-29T19:55:03.461Z,102307.66
2022-11-29T19:59:57.678Z,102318.81
2022-11-29T20:04:51.849Z,102319.31
2022-11-29T20:09:45.688Z,102327.66
2022-11-29T20:14:36.824Z,102332.56
2022-11-29T20:19:30.379Z,102335.19
2022-11-29T20:24:25.426Z,102316.50
2022-11-29T20:29:30.229Z,102325.94
2022-11-29T20:34:22.447Z,102334.66
2022-11-29T20:39:26.839Z,102340.63
2022-11-29T20:44:24.675Z,102350.63
2022-11-29T20:49:19.852Z,102344.69
2022-11-29T20:54:13.726Z,102343.47
2022-11-29T20:59:06.456Z,102333.88
2022-11-29T21:04:00.553Z,102345.03
2022-11-29T21:08:57.996Z,102349.50
2022-11-29T21:13:54.840Z,102350.38
2022-11-29T21:18:53.336Z,102354.69
2022-11-29T21:24:18.637Z,102346.16
2022-11-29T21:29:21.448Z,102346.31
2022-11-29T21:34:12.117Z,102344.63
2022-11-29T21:39:07.713Z,102338.53
2022-11-29T21:44:12.247Z,102328.72
2022-11-29T21:49:08.534Z,102336.69
2022-11-29T21:54:05.285Z,102343.69
2022-11-29T21:59:06.083Z,102345.38
2022-11-29T22:04:01.757Z,102336.63
2022-11-29T22:08:55.422Z,102343.75
2022-11-29T22:14:08.837Z,102354.03
2022-11-29T22:19:03.152Z,102351.19
2022-11-29T22:23:56.370Z,102363.44
2022-11-29T22:28:59.527Z,102350.25
2022-11-29T22:33:55.809Z,102366.13
2022-11-29T22:38:49.303Z,102366.22
2022-11-29T22:43:41.321Z,102368.78
2022-11-29T22:48:38.469Z,102358.28
2022-11-29T22:53:33.331Z,102360.19
2022-11-29T22:58:39.649Z,102365.34
2022-11-29T23:03:33.942Z,102371.34
2022-11-29T23:08:34.702Z,102369.66
2022-11-29T23:13:30.659Z,102367.19
2022-11-29T23:18:20.511Z,102367.25
2022-11-29T23:23:10.365Z,102365.50
2022-11-29T23:28:17.980Z,102363.03
2022-11-29T23:33:24.708Z,102369.03
2022-11-29T23:38:16.934Z,102369.16
2022-11-29T23:43:20.427Z,102370.84
2022-11-29T23:48:13.075Z,102383.03
2022-11-29T23:53:03.521Z,102350.78
2022-11-29T23:57:53.706Z,102372.16
